CST,Max TemperatureF,Mean TemperatureF,Min TemperatureF,Max Dew PointF,MeanDew PointF,Min DewpointF,Max Humidity, Mean Humidity, Min Humidity, Max Sea Level PressureIn, Mean Sea Level PressureIn, Min Sea Level PressureIn, Max VisibilityMiles, Mean VisibilityMiles, Min VisibilityMiles, Max Wind SpeedMPH, Mean Wind SpeedMPH, Max Gust SpeedMPH,PrecipitationIn, CloudCover, Events, WindDirDegrees
2013-1-1,29,15,1,18,10,-2,92,78,63,30.27,30.20,30.11,10,10,10,16,7,18,0.00,1,,257
2013-1-2,32,27,21,25,22,19,85,74,63,30.36,30.15,30.02,10,8,1,23,14,31,0.01,8,Snow,317
2013-1-3,28,19,10,18,12,6,81,71,60,30.43,30.34,30.22,10,10,10,22,9,26,T,4,,264
2013-1-4,42,24,6,20,11,2,84,61,38,30.28,30.20,30.12,10,10,10,13,7,15,0.00,0,,252
2013-1-5,40,25,10,21,14,7,84,64,43,30.32,30.18,29.99,10,10,10,30,12,40,0.00,0,,293
2013-1-6,47,28,8,22,15,5,92,63,33,30.33,30.16,29.93,10,10,10,25,11,32,0.00,0,,235
2013-1-7,48,34,20,23,19,15,84,58,31,30.08,29.99,29.91,10,10,6,12,6,14,0.00,0,,245
2013-1-8,50,34,18,27,23,14,85,62,39,30.22,29.93,29.71,10,10,10,26,10,37,0.00,2,,281
2013-1-9,56,37,17,28,24,14,92,61,30,30.32,30.21,30.08,10,10,10,31,13,39,0.00,0,,216
2013-1-10,50,42,33,37,30,21,92,67,42,30.07,29.77,29.50,10,10,6,28,16,37,0.00,3,,200
2013-1-11,36,23,10,34,19,3,96,85,74,29.87,29.56,29.39,10,4,0,30,16,41,0.07,7,Fog-Snow,317
2013-1-12,12,4,-4,3,0,-8,83,75,66,30.30,30.07,29.78,10,6,0,26,14,33,T,7,Snow,310
2013-1-13,17,7,-3,9,0,-7,87,74,61,30.39,30.30,30.13,10,9,3,14,8,18,T,5,,284
2013-1-14,19,7,-6,5,-4,-10,82,67,51,30.46,30.36,30.17,10,10,10,15,8,17,0.00,0,,247
2013-1-15,33,14,-6,29,11,-11,92,74,55,30.31,30.11,29.89,10,8,1,18,11,23,0.04,5,Snow,253
2013-1-16,47,37,26,29,26,22,92,69,45,30.31,30.10,29.89,10,10,10,22,12,29,T,3,,286
2013-1-17,46,33,20,25,23,17,85,65,45,30.48,30.35,30.15,10,10,10,17,9,21,0.00,0,,245
2013-1-18,52,39,26,27,23,18,78,55,32,30.12,30.00,29.90,10,10,10,22,10,26,0.00,0,,255
2013-1-19,50,34,17,27,22,11,81,60,39,30.37,30.16,29.92,10,10,10,24,11,31,0.00,1,,317
2013-1-20,21,16,11,13,10,6,88,72,56,30.52,30.39,30.14,10,10,5,18,9,24,T,7,Snow,1
2013-1-21,16,10,3,8,4,-2,86,77,67,30.49,30.40,30.18,10,8,2,12,5,14,0.01,8,Snow,40
2013-1-22,38,24,10,21,14,6,84,66,48,30.31,30.20,30.08,10,10,6,13,6,15,0.00,5,,157
2013-1-23,24,16,8,16,10,4,88,73,57,30.51,30.36,30.18,10,10,10,15,8,18,0.00,0,,17
2013-1-24,34,21,8,20,9,1,80,64,47,30.50,30.21,30.01,10,10,10,25,13,30,0.00,1,,180
2013-1-25,52,34,16,24,20,15,92,61,30,30.24,30.18,30.08,10,10,10,13,7,15,0.00,0,,251
2013-1-26,64,39,14,32,23,11,92,60,27,30.12,29.97,29.85,10,10,10,21,5,25,0.00,0,,268
2013-1-27,59,44,29,40,32,26,92,72,51,29.81,29.74,29.67,10,10,10,14,4,21,0.00,5,,281
2013-1-28,33,27,21,31,28,19,100,93,85,29.85,29.77,29.69,10,5,1,18,8,22,0.09,7,Snow,348
2013-1-29,35,26,16,28,23,16,92,81,69,30.02,29.83,29.69,10,7,1,26,10,35,0.01,6,Snow,332
2013-1-30,19,12,4,16,8,0,84,73,62,30.05,29.96,29.84,10,7,2,23,9,29,0.02,6,Snow,327
2013-1-31,11,4,-3,5,-4,-11,83,71,59,30.46,30.25,29.92,10,9,4,28,11,36,T,6,Snow,318